Time;durP1;ratioP1;P1;durP2;ratioP2;P2;SDS_P1;SDS_P2;PMS_P1;PMS_P2;Temp;Humidity;BMP_temperature;BMP_pressure;BME280_temperature;BME280_humidity;BME280_pressure;Samples;Min_cycle;Max_cycle;Signal;HPM_P1;HPM_P2
2021/01/18 00:00:46;;;;;;;20.00;9.83;;;5.50;91.10;;;;;;5074488;28;20191;-67
2021/01/18 00:03:11;;;;;;;29.73;9.85;;;5.50;99.90;;;;;;5074646;28;20200;-67
2021/01/18 00:05:37;;;;;;;17.03;9.13;;;5.40;1.00;;;;;;5074686;28;20661;-67
2021/01/18 00:08:03;;;;;;;19.40;9.63;;;5.40;99.90;;;;;;5074500;28;20279;-67
2021/01/18 00:10:29;;;;;;;21.17;11.07;;;5.20;1.00;;;;;;5074542;28;20274;-67
2021/01/18 00:12:56;;;;;;;26.93;11.23;;;5.20;1.00;;;;;;5074523;28;20171;-67
2021/01/18 00:15:26;;;;;;;23.90;10.30;;;5.30;1.00;;;;;;5074463;28;20592;-67
2021/01/18 00:17:52;;;;;;;26.38;12.25;;;5.20;1.00;;;;;;5074383;28;20164;-67
2021/01/18 00:20:20;;;;;;;28.45;11.52;;;5.20;1.00;;;;;;5074238;28;20241;-67
2021/01/18 00:22:47;;;;;;;23.50;10.48;;;5.40;1.00;;;;;;5074286;28;20171;-67
2021/01/18 00:25:13;;;;;;;22.05;11.38;;;5.30;1.00;;;;;;5074490;28;20200;-67
2021/01/18 00:27:42;;;;;;;19.58;10.98;;;5.50;1.00;;;;;;5074379;28;20188;-67
2021/01/18 00:30:09;;;;;;;33.38;13.75;;;5.30;99.90;;;;;;5074120;28;20191;-67
2021/01/18 00:32:35;;;;;;;20.58;9.95;;;5.40;1.00;;;;;;5074085;28;20160;-67
2021/01/18 00:35:01;;;;;;;18.55;10.40;;;5.20;99.90;;;;;;5074271;28;20246;-67
2021/01/18 00:37:26;;;;;;;19.40;9.63;;;5.20;99.90;;;;;;5074312;28;20719;-67
2021/01/18 00:39:52;;;;;;;17.40;10.30;;;5.10;1.00;;;;;;5073396;28;20187;-67
2021/01/18 00:42:21;;;;;;;19.70;11.10;;;5.10;1.00;;;;;;5074416;28;20164;-67
2021/01/18 00:44:47;;;;;;;30.52;13.23;;;5.20;6.90;;;;;;5073974;28;20510;-67
2021/01/18 00:47:13;;;;;;;30.92;12.07;;;5.30;1.00;;;;;;5073612;28;20188;-67
2021/01/18 00:49:39;;;;;;;20.35;11.30;;;5.30;1.00;;;;;;5073722;28;20606;-67
2021/01/18 00:52:05;;;;;;;24.80;10.77;;;5.20;1.00;;;;;;5073771;28;20168;-67
2021/01/18 00:54:30;;;;;;;28.67;11.50;;;5.20;1.00;;;;;;5073823;28;20168;-67
2021/01/18 00:56:56;;;;;;;20.70;10.90;;;5.00;1.00;;;;;;5073459;28;20481;-67
2021/01/18 00:59:21;;;;;;;24.67;11.87;;;5.20;1.00;;;;;;5073429;28;20191;-67
2021/01/18 01:01:47;;;;;;;20.27;11.43;;;5.00;1.00;;;;;;5073545;28;20579;-67
2021/01/18 01:04:12;;;;;;;22.87;12.03;;;5.00;1.00;;;;;;5073671;28;20263;-67
2021/01/18 01:06:38;;;;;;;21.30;13.07;;;5.10;1.00;;;;;;5073206;28;20192;-67
2021/01/18 01:09:04;;;;;;;37.23;13.87;;;5.10;1.00;;;;;;5073186;28;20252;-67
2021/01/18 01:11:30;;;;;;;24.10;12.43;;;5.00;1.00;;;;;;5072994;28;20277;-67
2021/01/18 01:13:56;;;;;;;26.38;13.05;;;4.90;1.00;;;;;;5073263;28;20172;-67
2021/01/18 01:16:22;;;;;;;24.80;13.17;;;5.00;96.90;;;;;;5073157;28;20209;-67
2021/01/18 01:18:47;;;;;;;28.53;13.23;;;5.10;99.90;;;;;;5073413;28;20255;-67
2021/01/18 01:21:13;;;;;;;26.33;13.70;;;5.30;13.70;;;;;;5073306;28;20215;-67
2021/01/18 01:23:38;;;;;;;26.03;13.07;;;5.00;1.00;;;;;;5073013;28;20190;-67
2021/01/18 01:26:04;;;;;;;33.17;13.10;;;5.00;1.00;;;;;;5073226;28;20684;-67
2021/01/18 01:28:30;;;;;;;26.00;11.77;;;5.10;1.00;;;;;;5072994;28;20537;-67
2021/01/18 01:30:55;;;;;;;28.80;13.07;;;5.10;1.00;;;;;;5072903;28;20233;-67
2021/01/18 01:33:21;;;;;;;45.83;15.37;;;5.10;1.00;;;;;;5072932;28;20167;-66
2021/01/18 01:35:46;;;;;;;25.17;11.43;;;5.10;1.00;;;;;;5073025;28;20164;-67
2021/01/18 01:38:12;;;;;;;25.23;12.47;;;5.30;1.00;;;;;;5073009;28;20229;-67
2021/01/18 01:40:37;;;;;;;31.30;11.33;;;5.00;99.90;;;;;;5072965;28;20187;-67
2021/01/18 01:43:04;;;;;;;19.77;12.13;;;5.40;1.00;;;;;;5072932;28;20168;-67
2021/01/18 01:45:30;;;;;;;30.02;12.90;;;5.40;1.00;;;;;;5072940;28;20649;-67
2021/01/18 01:47:56;;;;;;;17.17;9.60;;;5.30;1.00;;;;;;5072922;28;20204;-67
2021/01/18 01:50:34;;;;;;;14.40;9.63;;;5.10;99.90;;;;;;5072842;28;20238;-67
2021/01/18 01:53:15;;;;;;;23.90;10.23;;;5.10;1.00;;;;;;5072774;28;20176;-67
2021/01/18 01:55:41;;;;;;;21.90;10.75;;;5.10;1.00;;;;;;5073145;28;20520;-67
2021/01/18 01:58:08;;;;;;;19.67;8.90;;;5.00;1.00;;;;;;5072787;28;20168;-66
2021/01/18 02:00:37;;;;;;;23.80;10.25;;;5.00;99.90;;;;;;5072739;28;20746;-67
2021/01/18 02:03:23;;;;;;;19.95;9.57;;;5.20;99.90;;;;;;5072742;28;20198;-67
2021/01/18 02:05:50;;;;;;;16.98;8.50;;;5.30;99.90;;;;;;5051681;28;20562;-67
2021/01/18 02:08:16;;;;;;;17.85;9.25;;;5.40;1.00;;;;;;5072722;28;20691;-67
2021/01/18 02:10:42;;;;;;;16.07;8.87;;;5.20;81.20;;;;;;5072600;28;20192;-66
2021/01/18 02:13:37;;;;;;;16.77;8.52;;;5.10;1.00;;;;;;5072917;28;20165;-67
2021/01/18 02:16:02;;;;;;;24.05;9.65;;;5.20;99.90;;;;;;5072973;28;20673;-67
2021/01/18 02:18:52;;;;;;;20.40;9.63;;;5.20;1.00;;;;;;5072692;28;20251;-67
2021/01/18 02:21:32;;;;;;;20.73;8.80;;;5.30;18.60;;;;;;5072976;28;20169;-67
2021/01/18 02:24:40;;;;;;;16.13;9.05;;;5.10;1.00;;;;;;5076612;28;20179;-67
2021/01/18 02:27:18;;;;;;;18.65;9.15;;;5.30;1.00;;;;;;5077098;28;20271;-67
2021/01/18 02:30:02;;;;;;;17.17;9.98;;;5.30;44.60;;;;;;5077034;28;20192;-67
2021/01/18 02:32:37;;;;;;;19.83;9.63;;;5.30;1.00;;;;;;5076516;28;20235;-66
2021/01/18 02:35:09;;;;;;;24.33;8.80;;;5.30;1.00;;;;;;5076436;28;20627;-67
2021/01/18 02:38:00;;;;;;;21.42;11.35;;;5.10;1.00;;;;;;5076438;28;20235;-67
2021/01/18 02:40:40;;;;;;;23.83;10.20;;;5.40;34.30;;;;;;5076319;28;20184;-66
2021/01/18 02:43:09;;;;;;;24.38;10.07;;;5.20;1.00;;;;;;5076497;28;20617;-67
2021/01/18 02:45:36;;;;;;;24.02;12.27;;;5.30;1.00;;;;;;5076498;28;20258;-67
2021/01/18 02:48:02;;;;;;;20.13;10.25;;;5.10;46.70;;;;;;5076162;28;20618;-67
2021/01/18 02:50:30;;;;;;;26.90;11.23;;;5.30;1.00;;;;;;5076065;28;20196;-66
2021/01/18 02:52:56;;;;;;;24.70;11.15;;;5.00;99.90;;;;;;5076078;28;20303;-67
2021/01/18 02:55:22;;;;;;;21.80;12.10;;;5.00;1.00;;;;;;5076065;28;20251;-67
2021/01/18 02:57:50;;;;;;;24.70;12.43;;;5.20;99.90;;;;;;5075996;28;20172;-67
2021/01/18 03:00:22;;;;;;;23.67;13.55;;;5.10;99.90;;;;;;5075875;28;20429;-67
2021/01/18 03:02:58;;;;;;;23.05;12.00;;;5.00;99.90;;;;;;5076208;28;20521;-67
2021/01/18 03:05:36;;;;;;;24.45;11.27;;;5.20;99.90;;;;;;5075844;28;20160;-67
2021/01/18 03:08:19;;;;;;;26.45;11.50;;;5.30;99.90;;;;;;5076027;28;20183;-67
2021/01/18 03:11:01;;;;;;;26.95;12.35;;;5.20;99.90;;;;;;5075740;28;20176;-67
2021/01/18 03:13:44;;;;;;;23.83;12.05;;;5.30;1.00;;;;;;5076061;28;20148;-67
2021/01/18 03:16:18;;;;;;;27.30;11.32;;;5.40;99.90;;;;;;5075964;28;20151;-66
2021/01/18 03:18:45;;;;;;;22.10;10.15;;;5.40;99.90;;;;;;5075652;28;20640;-67
2021/01/18 03:21:12;;;;;;;21.13;11.07;;;5.30;99.90;;;;;;5075478;28;20180;-67
2021/01/18 03:23:42;;;;;;;22.02;11.55;;;5.40;99.90;;;;;;5075528;28;20609;-67
2021/01/18 03:26:08;;;;;;;29.30;12.43;;;5.60;99.90;;;;;;5075378;28;20178;-67
2021/01/18 03:28:33;;;;;;;23.80;10.70;;;5.60;1.00;;;;;;5075440;28;20168;-66
2021/01/18 03:30:59;;;;;;;17.07;10.47;;;5.40;1.00;;;;;;5075308;28;20441;-66
2021/01/18 03:33:26;;;;;;;19.30;9.60;;;5.40;1.00;;;;;;5075025;28;20191;-66
2021/01/18 03:35:52;;;;;;;20.90;11.13;;;5.30;1.00;;;;;;5075105;28;20246;-67
2021/01/18 03:38:18;;;;;;;20.88;10.43;;;5.00;48.00;;;;;;5075642;28;20206;-67
2021/01/18 03:40:44;;;;;;;23.60;11.38;;;5.20;99.90;;;;;;5075010;28;20275;-66
2021/01/18 03:43:10;;;;;;;20.10;9.57;;;5.40;78.50;;;;;;5074958;28;20255;-67
2021/01/18 03:45:40;;;;;;;25.03;10.37;;;5.30;1.00;;;;;;5075085;28;20648;-66
2021/01/18 03:48:08;;;;;;;22.65;9.65;;;5.40;1.00;;;;;;5074513;28;20191;-66
2021/01/18 03:50:35;;;;;;;15.55;9.90;;;5.40;1.00;;;;;;5072539;28;20188;-67
2021/01/18 03:53:00;;;;;;;18.98;10.20;;;5.10;1.00;;;;;;5073974;28;20254;-67
2021/01/18 03:55:26;;;;;;;26.13;10.33;;;5.00;40.00;;;;;;5074042;28;20168;-67
2021/01/18 03:57:54;;;;;;;18.33;10.30;;;5.00;99.90;;;;;;5073928;28;20168;-67
2021/01/18 04:00:30;;;;;;;18.17;9.38;;;5.00;1.00;;;;;;5073571;28;20184;-67
2021/01/18 04:02:56;;;;;;;14.43;8.85;;;5.20;1.00;;;;;;5073707;28;20610;-66
2021/01/18 04:05:23;;;;;;;25.45;8.88;;;5.40;99.90;;;;;;5073752;28;20643;-67
2021/01/18 04:07:50;;;;;;;17.15;7.82;;;5.30;1.00;;;;;;5073479;28;20192;-67
2021/01/18 04:10:21;;;;;;;16.52;8.02;;;5.10;1.00;;;;;;5073535;28;20187;-66
2021/01/18 04:12:48;;;;;;;14.45;8.20;;;5.30;1.00;;;;;;5073540;28;20236;-67
2021/01/18 04:15:16;;;;;;;15.93;7.38;;;5.20;1.00;;;;;;5073695;28;20637;-67
2021/01/18 04:17:43;;;;;;;13.57;8.40;;;5.30;1.00;;;;;;5073379;28;20168;-67
2021/01/18 04:20:09;;;;;;;17.40;8.50;;;5.30;1.00;;;;;;5073277;28;20189;-67
2021/01/18 04:22:36;;;;;;;19.00;8.05;;;5.20;1.00;;;;;;5073399;28;20290;-67
2021/01/18 04:25:02;;;;;;;14.63;7.63;;;5.30;17.70;;;;;;5073433;28;20649;-67
2021/01/18 04:27:28;;;;;;;15.75;8.82;;;5.50;1.00;;;;;;5073123;28;20513;-67
2021/01/18 04:29:53;;;;;;;15.87;8.03;;;5.50;1.00;;;;;;5073163;28;20184;-67
2021/01/18 04:32:19;;;;;;;17.80;7.67;;;5.40;1.00;;;;;;5073190;28;20172;-67
2021/01/18 04:34:44;;;;;;;10.20;6.73;;;5.20;1.00;;;;;;5073194;28;20170;-66
2021/01/18 04:37:10;;;;;;;17.40;7.80;;;5.00;1.00;;;;;;5073388;28;20164;-67
2021/01/18 04:39:35;;;;;;;16.10;7.90;;;5.00;99.90;;;;;;5073312;28;20218;-67
2021/01/18 04:42:01;;;;;;;18.30;7.80;;;4.90;4.50;;;;;;5073065;28;20164;-67
2021/01/18 04:44:27;;;;;;;14.67;8.07;;;4.80;1.00;;;;;;5072251;28;20168;-67
2021/01/18 04:46:54;;;;;;;17.15;8.23;;;5.00;99.90;;;;;;5073053;28;20489;-67
2021/01/18 04:49:21;;;;;;;11.40;7.27;;;4.80;99.90;;;;;;5053281;28;584513;-66
2021/01/18 04:51:55;;;;;;;14.27;8.35;;;5.10;1.00;;;;;;5073612;28;20699;-67
2021/01/18 04:54:23;;;;;;;23.67;8.75;;;5.20;1.00;;;;;;5073947;28;20176;-67
2021/01/18 04:57:11;;;;;;;20.63;8.57;;;5.30;90.10;;;;;;5074062;28;20255;-67
2021/01/18 04:59:48;;;;;;;15.25;8.05;;;4.90;99.90;;;;;;5073373;28;20270;-67
2021/01/18 05:02:19;;;;;;;15.40;8.32;;;4.80;1.00;;;;;;5073727;28;20148;-66
2021/01/18 05:04:52;;;;;;;15.65;8.40;;;5.10;1.00;;;;;;5073695;28;20172;-67
2021/01/18 05:07:35;;;;;;;19.27;8.38;;;5.20;99.90;;;;;;5073276;28;20561;-66
2021/01/18 05:10:09;;;;;;;15.20;8.60;;;5.20;99.90;;;;;;5073234;28;20188;-67
2021/01/18 05:12:36;;;;;;;11.55;7.60;;;5.40;99.90;;;;;;5073217;28;20623;-67
2021/01/18 05:15:06;;;;;;;14.80;8.88;;;5.40;1.00;;;;;;5073374;28;20156;-67
2021/01/18 05:17:43;;;;;;;14.88;8.55;;;5.40;1.00;;;;;;5073105;28;20178;-66
2021/01/18 05:20:17;;;;;;;16.85;9.88;;;5.50;1.00;;;;;;5073388;28;20660;-67
2021/01/18 05:22:44;;;;;;;18.55;8.73;;;5.30;1.00;;;;;;5073028;28;20245;-66
2021/01/18 05:25:13;;;;;;;19.25;8.80;;;5.40;60.50;;;;;;5073057;28;20168;-66
2021/01/18 05:28:07;;;;;;;18.58;8.88;;;5.30;21.30;;;;;;5072991;28;20223;-67
2021/01/18 05:30:38;;;;;;;23.33;8.80;;;5.20;1.00;;;;;;5072914;28;20585;-67
2021/01/18 05:33:08;;;;;;;16.40;8.88;;;5.20;39.30;;;;;;5073108;28;20172;-67
2021/01/18 05:35:37;;;;;;;22.40;10.95;;;5.20;83.50;;;;;;5072937;28;20656;-67
2021/01/18 05:38:11;;;;;;;20.60;9.73;;;5.40;99.90;;;;;;5073055;28;20176;-66
2021/01/18 05:40:38;;;;;;;14.18;9.02;;;5.50;1.00;;;;;;5072812;28;20193;-67
2021/01/18 05:43:04;;;;;;;19.55;10.02;;;5.60;1.00;;;;;;5073068;28;20247;-67
2021/01/18 05:45:38;;;;;;;18.90;9.32;;;5.50;1.00;;;;;;5072679;28;20168;-67
2021/01/18 05:48:06;;;;;;;17.77;8.25;;;5.50;1.00;;;;;;5072874;28;20630;-67
2021/01/18 05:50:33;;;;;;;14.35;8.90;;;5.50;1.00;;;;;;5072743;28;20265;-68
2021/01/18 05:52:59;;;;;;;26.20;10.27;;;5.20;1.00;;;;;;5072980;28;20629;-68
2021/01/18 05:55:30;;;;;;;20.63;11.00;;;5.20;1.00;;;;;;5072969;28;20629;-66
2021/01/18 05:57:57;;;;;;;20.80;10.32;;;5.10;99.90;;;;;;5071990;28;20180;-67
2021/01/18 06:00:31;;;;;;;19.05;8.60;;;5.10;99.90;;;;;;5072538;28;20184;-67
2021/01/18 06:02:58;;;;;;;16.05;9.18;;;5.30;99.90;;;;;;5072701;28;20157;-68
2021/01/18 06:05:29;;;;;;;13.65;9.48;;;5.50;1.00;;;;;;5072567;28;20645;-67
2021/01/18 06:08:06;;;;;;;20.25;10.05;;;5.60;1.00;;;;;;5072825;28;20191;-66
2021/01/18 06:10:33;;;;;;;20.20;9.07;;;5.60;1.00;;;;;;5072617;28;20180;-67
2021/01/18 06:13:00;;;;;;;19.88;10.35;;;5.40;1.00;;;;;;5072830;28;20191;-68
2021/01/18 06:15:26;;;;;;;20.05;10.23;;;5.50;1.00;;;;;;5072935;28;20251;-67
2021/01/18 06:17:56;;;;;;;23.17;10.73;;;5.60;1.00;;;;;;5072534;28;20173;-67
2021/01/18 06:20:28;;;;;;;39.17;14.15;;;5.70;1.00;;;;;;5072496;28;20188;-67
2021/01/18 06:22:58;;;;;;;29.90;10.27;;;5.70;1.00;;;;;;5072681;28;20184;-67
2021/01/18 06:25:38;;;;;;;23.83;9.70;;;5.50;1.00;;;;;;5072397;28;20658;-67
2021/01/18 06:28:23;;;;;;;28.10;11.55;;;5.60;1.00;;;;;;5072330;28;20214;-68
2021/01/18 06:30:54;;;;;;;21.50;10.63;;;5.60;1.00;;;;;;5072447;28;20184;-68
2021/01/18 06:33:20;;;;;;;19.35;10.38;;;5.70;1.00;;;;;;5072669;28;20180;-68
2021/01/18 06:35:45;;;;;;;28.90;10.83;;;5.70;1.00;;;;;;5072587;28;20645;-66
2021/01/18 06:38:20;;;;;;;20.80;9.57;;;5.70;1.00;;;;;;5072153;28;20667;-67
2021/01/18 06:40:58;;;;;;;25.52;10.90;;;5.60;1.00;;;;;;5072596;28;20219;-67
2021/01/18 06:43:23;;;;;;;14.38;9.00;;;5.60;1.00;;;;;;5072792;28;20161;-66
2021/01/18 06:45:49;;;;;;;28.53;11.67;;;5.60;1.00;;;;;;5072225;28;20183;-67
2021/01/18 06:48:15;;;;;;;22.60;10.30;;;5.60;1.00;;;;;;5072014;28;20677;-68
2021/01/18 06:50:40;;;;;;;22.83;10.83;;;5.40;1.00;;;;;;5072098;28;20184;-67
2021/01/18 06:53:12;;;;;;;18.10;9.23;;;5.40;99.90;;;;;;5072219;28;20396;-67
2021/01/18 06:55:58;;;;;;;19.88;10.88;;;5.30;1.00;;;;;;5072330;28;20149;-68
2021/01/18 06:58:40;;;;;;;22.35;10.25;;;5.30;39.40;;;;;;5072129;28;20649;-68
2021/01/18 07:01:13;;;;;;;21.45;9.93;;;5.50;99.90;;;;;;5071767;28;20282;-67
2021/01/18 07:03:40;;;;;;;20.85;10.40;;;5.20;99.90;;;;;;5071859;28;20157;-67
2021/01/18 07:06:31;;;;;;;15.82;9.85;;;5.40;99.90;;;;;;5072420;28;20640;-68
2021/01/18 07:08:58;;;;;;;39.50;13.18;;;5.30;99.90;;;;;;5074246;28;20619;-68
2021/01/18 07:11:24;;;;;;;21.85;9.82;;;5.30;99.90;;;;;;5075466;28;20171;-67
2021/01/18 07:13:50;;;;;;;17.77;9.57;;;5.30;7.50;;;;;;5075599;28;20164;-68
2021/01/18 07:16:21;;;;;;;34.83;14.50;;;5.30;82.20;;;;;;5075837;28;20160;-68
2021/01/18 07:18:52;;;;;;;29.27;11.25;;;5.50;1.00;;;;;;5075632;28;20196;-68
2021/01/18 07:21:19;;;;;;;21.02;11.27;;;5.50;1.00;;;;;;5075512;28;20239;-68
2021/01/18 07:23:53;;;;;;;16.77;10.32;;;5.40;1.00;;;;;;5075802;28;20160;-67
2021/01/18 07:26:34;;;;;;;33.42;12.60;;;5.60;99.90;;;;;;5075150;28;20151;-67
2021/01/18 07:29:07;;;;;;;17.10;9.25;;;5.60;1.00;;;;;;5075261;28;20164;-67
2021/01/18 07:31:35;;;;;;;22.23;11.55;;;5.40;1.00;;;;;;5075511;28;20157;-66
2021/01/18 07:34:01;;;;;;;23.10;11.43;;;5.50;1.00;;;;;;5075492;28;20191;-67
2021/01/18 07:36:29;;;;;;;21.02;9.90;;;5.30;1.00;;;;;;5075434;28;20164;-67
2021/01/18 07:38:56;;;;;;;20.88;10.55;;;5.30;99.90;;;;;;5075596;28;20174;-66
2021/01/18 07:41:30;;;;;;;17.52;9.18;;;5.40;1.00;;;;;;5074863;28;20172;-67
2021/01/18 07:43:56;;;;;;;22.17;10.65;;;5.10;60.80;;;;;;5075634;28;20629;-67
2021/01/18 07:46:25;;;;;;;34.65;12.00;;;5.30;29.40;;;;;;5075446;28;20191;-67
2021/01/18 07:48:58;;;;;;;20.48;10.57;;;5.40;99.90;;;;;;5074919;28;20187;-67
2021/01/18 07:51:27;;;;;;;26.02;11.60;;;5.50;1.00;;;;;;5075043;28;20174;-67
2021/01/18 07:53:53;;;;;;;22.60;10.88;;;5.50;7.90;;;;;;5074888;28;20165;-67
2021/01/18 07:56:25;;;;;;;26.73;12.33;;;5.50;57.80;;;;;;5074932;28;20175;-67
2021/01/18 07:59:02;;;;;;;19.13;11.30;;;5.50;99.90;;;;;;5074627;28;20251;-66
2021/01/18 08:01:29;;;;;;;30.85;10.65;;;5.40;1.00;;;;;;5074569;28;20172;-68
2021/01/18 08:04:28;;;;;;;20.33;10.93;;;5.60;99.90;;;;;;5074482;28;20288;-67
2021/01/18 08:07:09;;;;;;;19.42;10.73;;;5.50;1.00;;;;;;5074581;28;20296;-68
2021/01/18 08:09:36;;;;;;;23.27;10.63;;;5.70;1.00;;;;;;5074423;28;20188;-67
2021/01/18 08:12:30;;;;;;;21.50;10.02;;;5.70;1.00;;;;;;5074658;28;20160;-67
2021/01/18 08:14:56;;;;;;;16.40;9.15;;;5.80;99.90;;;;;;5074701;28;20160;-67
2021/01/18 08:17:22;;;;;;;23.05;11.70;;;5.50;99.90;;;;;;5074244;28;20632;-67
2021/01/18 08:20:07;;;;;;;25.50;11.20;;;5.70;1.00;;;;;;5073300;28;20208;-67
2021/01/18 08:22:33;;;;;;;19.15;10.35;;;5.60;99.90;;;;;;5074337;28;20168;-68
2021/01/18 08:24:59;;;;;;;18.00;9.30;;;5.70;1.00;;;;;;5074146;28;20199;-68
2021/01/18 08:27:38;;;;;;;16.65;9.90;;;5.70;1.00;;;;;;5074053;28;20428;-67
2021/01/18 08:30:19;;;;;;;25.83;9.95;;;5.50;99.90;;;;;;5073949;28;20188;-67
2021/01/18 08:32:51;;;;;;;23.02;11.38;;;5.60;42.30;;;;;;5074053;28;20247;-67
2021/01/18 08:35:17;;;;;;;24.38;10.18;;;5.70;1.00;;;;;;5074210;28;20601;-67
2021/01/18 08:37:55;;;;;;;28.77;10.50;;;5.50;1.00;;;;;;5073844;28;20195;-67
2021/01/18 08:40:21;;;;;;;21.58;12.20;;;5.50;88.40;;;;;;5073742;28;20206;-67
2021/01/18 08:42:54;;;;;;;17.97;10.67;;;5.50;99.90;;;;;;5074182;28;20664;-67
2021/01/18 08:45:22;;;;;;;31.65;11.35;;;5.70;99.90;;;;;;5074221;28;20393;-66
2021/01/18 08:47:54;;;;;;;23.05;11.27;;;5.60;1.00;;;;;;5073440;28;20199;-65
2021/01/18 08:50:27;;;;;;;21.00;9.95;;;5.70;1.00;;;;;;5073473;28;20246;-66
2021/01/18 08:52:58;;;;;;;24.90;9.57;;;5.70;1.00;;;;;;5073533;28;20184;-66
2021/01/18 08:55:30;;;;;;;33.85;13.30;;;5.80;1.00;;;;;;5073371;28;20209;-67
2021/01/18 08:57:58;;;;;;;37.28;13.20;;;5.80;1.00;;;;;;5073389;28;20172;-67
2021/01/18 09:00:24;;;;;;;27.70;10.98;;;5.70;1.00;;;;;;5073354;28;20192;-66
2021/01/18 09:02:50;;;;;;;28.67;12.63;;;5.90;1.00;;;;;;5073757;28;20510;-67
2021/01/18 09:05:19;;;;;;;18.90;10.80;;;6.00;99.90;;;;;;5073544;28;20168;-67
2021/01/18 09:07:46;;;;;;;20.80;11.15;;;6.00;99.90;;;;;;5072027;28;20453;-67
2021/01/18 09:10:16;;;;;;;21.30;11.75;;;5.90;99.90;;;;;;5072967;28;20188;-67
2021/01/18 09:12:44;;;;;;;36.35;13.50;;;6.00;99.90;;;;;;5073604;28;20160;-66
2021/01/18 09:15:10;;;;;;;35.47;14.52;;;5.90;1.00;;;;;;5073189;28;20172;-66
2021/01/18 09:17:36;;;;;;;42.90;14.63;;;6.10;1.00;;;;;;5073386;28;20381;-66
2021/01/18 09:20:06;;;;;;;24.77;12.73;;;6.30;1.00;;;;;;5073126;28;20676;-67
2021/01/18 09:22:36;;;;;;;24.80;13.10;;;6.20;99.90;;;;;;5073149;28;20173;-67
2021/01/18 09:25:04;;;;;;;45.45;15.30;;;6.20;99.90;;;;;;5073211;28;20661;-67
2021/01/18 09:27:32;;;;;;;32.78;13.95;;;6.20;1.00;;;;;;5072985;28;20534;-67
2021/01/18 09:30:18;;;;;;;44.10;15.98;;;6.00;99.90;;;;;;5073022;28;20188;-67
2021/01/18 09:32:58;;;;;;;26.02;14.27;;;6.20;99.90;;;;;;5072794;28;20184;-67
2021/01/18 09:35:26;;;;;;;30.35;16.05;;;6.10;99.90;;;;;;5073408;28;20251;-67
2021/01/18 09:37:52;;;;;;;32.60;15.93;;;5.70;1.00;;;;;;5073003;28;20506;-67
2021/01/18 09:40:18;;;;;;;30.60;16.20;;;5.90;1.00;;;;;;5073163;28;20199;-67
2021/01/18 09:42:46;;;;;;;36.75;18.48;;;5.90;1.00;;;;;;5073135;28;20178;-68
2021/01/18 09:45:15;;;;;;;30.98;16.58;;;5.80;1.00;;;;;;5073217;28;20164;-68
2021/01/18 09:47:41;;;;;;;31.17;17.10;;;5.90;1.00;;;;;;5072789;28;20204;-68
2021/01/18 09:50:15;;;;;;;26.55;14.52;;;6.10;99.90;;;;;;5073074;28;20188;-68
2021/01/18 09:52:44;;;;;;;32.63;15.30;;;6.00;99.90;;;;;;5072898;28;20247;-68
2021/01/18 09:55:31;;;;;;;33.67;14.65;;;5.90;99.90;;;;;;5072911;28;20168;-68
2021/01/18 09:58:08;;;;;;;33.55;14.52;;;5.90;1.00;;;;;;5073173;28;20548;-68
2021/01/18 10:00:37;;;;;;;31.90;13.55;;;5.90;99.90;;;;;;5072709;28;20584;-68
2021/01/18 10:03:04;;;;;;;31.38;15.13;;;5.80;99.90;;;;;;5072695;28;20160;-68
2021/01/18 10:05:45;;;;;;;36.42;14.55;;;5.80;99.90;;;;;;5071197;28;20241;-68
2021/01/18 10:08:16;;;;;;;27.35;12.35;;;6.10;99.90;;;;;;5072480;28;20191;-68
2021/01/18 10:10:49;;;;;;;25.35;13.25;;;6.20;99.90;;;;;;5071486;28;20256;-68
2021/01/18 10:13:20;;;;;;;31.00;11.43;;;6.20;99.90;;;;;;5072448;28;20160;-68
2021/01/18 10:15:47;;;;;;;34.20;12.55;;;6.30;99.90;;;;;;5072390;28;20160;-68
2021/01/18 10:18:33;;;;;;;25.65;11.98;;;6.20;99.90;;;;;;5072415;28;20165;-68
2021/01/18 10:21:00;;;;;;;31.17;13.40;;;5.90;99.90;;;;;;5072332;28;20183;-68
2021/01/18 10:23:33;;;;;;;32.50;13.70;;;6.20;99.90;;;;;;5072339;28;20169;-68
2021/01/18 10:26:27;;;;;;;33.78;14.43;;;6.20;99.90;;;;;;5071206;28;20593;-68
2021/01/18 10:29:00;;;;;;;29.20;13.30;;;6.30;99.90;;;;;;5072015;28;20275;-68
2021/01/18 10:31:29;;;;;;;27.67;10.60;;;6.30;99.90;;;;;;5070818;28;20175;-68
2021/01/18 10:34:29;;;;;;;18.60;10.82;;;6.10;99.90;;;;;;5072236;28;20186;-68
2021/01/18 10:37:17;;;;;;;23.10;12.05;;;6.40;99.90;;;;;;5050189;28;20586;-68
2021/01/18 10:39:47;;;;;;;31.70;12.30;;;6.50;99.90;;;;;;5072710;28;20184;-68
2021/01/18 10:42:15;;;;;;;29.15;9.77;;;6.50;99.90;;;;;;5073080;28;20519;-67
2021/01/18 10:44:54;;;;;;;9.88;6.43;;;6.40;99.90;;;;;;5075978;28;20164;-68
2021/01/18 10:47:28;;;;;;;13.57;7.00;;;6.20;99.90;;;;;;5075941;28;20263;-68
2021/01/18 10:49:59;;;;;;;20.00;8.85;;;6.20;99.90;;;;;;5076205;28;20195;-67
2021/01/18 10:52:39;;;;;;;15.65;8.05;;;6.30;99.90;;;;;;5076594;28;20165;-68
2021/01/18 10:55:06;;;;;;;18.02;8.35;;;6.40;99.90;;;;;;5076186;28;20674;-68
2021/01/18 10:57:41;;;;;;;15.93;7.70;;;6.50;99.90;;;;;;5076314;28;20215;-68
2021/01/18 11:00:13;;;;;;;19.48;6.53;;;6.50;99.90;;;;;;5076107;28;20338;-67
2021/01/18 11:02:41;;;;;;;23.08;7.43;;;6.40;99.90;;;;;;5075855;28;20571;-67
2021/01/18 11:05:09;;;;;;;14.57;6.20;;;6.30;99.90;;;;;;5075970;28;20186;-67
2021/01/18 11:07:37;;;;;;;24.33;7.57;;;6.40;99.90;;;;;;5075567;28;20246;-68
2021/01/18 11:10:04;;;;;;;28.92;7.68;;;6.50;99.90;;;;;;5075903;28;20598;-68
2021/01/18 11:12:36;;;;;;;17.27;6.43;;;6.50;99.90;;;;;;5075728;28;20168;-68
2021/01/18 11:15:07;;;;;;;18.48;6.57;;;6.70;87.70;;;;;;5075690;28;20251;-68
2021/01/18 11:17:33;;;;;;;14.10;5.72;;;6.40;91.90;;;;;;5075986;28;20645;-68
2021/01/18 11:19:58;;;;;;;14.03;5.53;;;6.60;94.90;;;;;;5075710;28;20282;-67
2021/01/18 11:22:24;;;;;;;12.33;4.80;;;6.80;63.80;;;;;;5075925;28;20263;-68
2021/01/18 11:24:50;;;;;;;12.00;4.27;;;6.80;37.60;;;;;;5076856;28;20168;-67
2021/01/18 11:27:16;;;;;;;6.97;3.90;;;6.70;76.10;;;;;;5077103;28;20254;-69
2021/01/18 11:29:42;;;;;;;14.70;4.23;;;6.90;38.60;;;;;;5076303;28;20657;-68
2021/01/18 11:32:08;;;;;;;14.63;5.07;;;7.10;34.50;;;;;;5075846;28;20781;-69
2021/01/18 11:34:33;;;;;;;10.00;4.73;;;7.30;18.00;;;;;;5075660;28;20175;-67
2021/01/18 11:37:07;;;;;;;8.37;3.70;;;7.40;1.00;;;;;;5075571;28;20896;-68
2021/01/18 11:39:33;;;;;;;10.52;3.47;;;7.40;1.00;;;;;;5076166;28;20184;-68
2021/01/18 11:42:02;;;;;;;9.13;3.20;;;7.40;1.00;;;;;;5075677;28;20168;-68
2021/01/18 11:44:28;;;;;;;13.75;3.92;;;7.60;1.00;;;;;;5075320;28;20399;-68
2021/01/18 11:46:57;;;;;;;18.40;5.85;;;7.50;1.00;;;;;;5075296;28;20196;-68
2021/01/18 11:49:24;;;;;;;10.38;3.00;;;7.40;1.00;;;;;;5074716;28;20302;-66
2021/01/18 11:51:51;;;;;;;14.02;4.47;;;7.70;1.00;;;;;;5074739;28;20529;-68
2021/01/18 11:54:16;;;;;;;11.88;3.40;;;7.50;1.00;;;;;;5074674;28;20529;-68
2021/01/18 11:56:42;;;;;;;10.83;3.70;;;7.20;1.00;;;;;;5074870;28;20164;-68
2021/01/18 11:59:09;;;;;;;16.00;3.33;;;7.30;1.00;;;;;;5074702;28;20206;-67
2021/01/18 12:01:49;;;;;;;9.65;4.68;;;7.20;1.00;;;;;;5075665;28;20171;-68
2021/01/18 12:04:16;;;;;;;16.73;3.75;;;7.20;1.00;;;;;;5074859;28;20168;-68
2021/01/18 12:06:41;;;;;;;25.40;6.00;;;7.40;1.00;;;;;;5075387;28;20156;-68
2021/01/18 12:09:08;;;;;;;10.77;3.90;;;7.50;1.00;;;;;;5075054;28;20222;-68
2021/01/18 12:11:40;;;;;;;17.67;3.63;;;7.70;1.00;;;;;;5074801;28;20574;-68
2021/01/18 12:14:08;;;;;;;13.13;3.75;;;7.30;1.00;;;;;;5074556;28;20210;-69
2021/01/18 12:16:33;;;;;;;7.68;3.45;;;7.20;1.00;;;;;;5074507;28;20529;-68
2021/01/18 12:18:59;;;;;;;18.83;5.83;;;7.20;1.00;;;;;;5074236;28;20161;-68
2021/01/18 12:21:25;;;;;;;10.60;3.87;;;7.50;1.00;;;;;;5074331;28;20407;-68
2021/01/18 12:23:51;;;;;;;9.93;3.97;;;7.40;1.00;;;;;;5074074;28;20956;-69
2021/01/18 12:26:17;;;;;;;14.63;3.67;;;7.70;1.00;;;;;;5074286;28;20289;-68
2021/01/18 12:28:44;;;;;;;13.20;3.13;;;7.60;1.00;;;;;;5074379;28;20288;-68
2021/01/18 12:31:10;;;;;;;15.32;3.20;;;7.60;1.00;;;;;;5074554;28;20733;-67
2021/01/18 12:33:35;;;;;;;9.85;2.78;;;7.50;1.00;;;;;;5074288;28;20688;-68
2021/01/18 12:36:01;;;;;;;9.40;3.30;;;7.70;1.00;;;;;;5074093;28;20252;-68
2021/01/18 12:38:27;;;;;;;6.57;3.00;;;7.50;1.00;;;;;;5074067;28;20188;-68
2021/01/18 12:40:52;;;;;;;8.50;3.47;;;7.30;1.00;;;;;;5073996;28;20267;-68
2021/01/18 12:43:18;;;;;;;20.63;4.03;;;7.50;1.00;;;;;;5073964;28;20641;-68
2021/01/18 12:45:48;;;;;;;12.00;2.80;;;7.60;1.00;;;;;;5074093;28;20160;-68
2021/01/18 12:48:15;;;;;;;15.65;3.80;;;7.50;1.00;;;;;;5073746;28;20450;-68
2021/01/18 12:50:40;;;;;;;10.90;3.28;;;7.50;1.00;;;;;;5073170;28;20188;-68
2021/01/18 12:53:43;;;;;;;14.10;4.17;;;7.40;1.00;;;;;;5073896;28;20167;-68
2021/01/18 12:56:01;;;;;;;7.00;2.65;;;7.50;1.00;;;;;;5073839;28;20756;-68
2021/01/18 12:58:27;;;;;;;7.37;2.37;;;7.30;1.00;;;;;;5073700;28;20183;-68
2021/01/18 13:00:52;;;;;;;5.47;3.13;;;7.40;1.00;;;;;;5073786;28;20534;-68
2021/01/18 13:03:18;;;;;;;10.03;2.63;;;7.40;1.00;;;;;;5073876;28;20167;-69